Time;durP1;ratioP1;P1;durP2;ratioP2;P2;SDS_P1;SDS_P2;PMS_P1;PMS_P2;Temp;Humidity;BMP_temperature;BMP_pressure;BME280_temperature;BME280_humidity;BME280_pressure;Samples;Min_cycle;Max_cycle;Signal;HPM_P1;HPM_P2
2023/04/02 05:01:19;;;;;;;2.90;0.82;;;9.00;99.90;;;;;;7061907;23;20078;-77
2023/04/02 05:04:26;;;;;;;2.75;0.93;;;9.00;99.90;;;;;;6151505;29;20054;-78
2023/04/02 05:07:30;;;;;;;2.03;0.80;;;9.00;99.90;;;;;;6153733;29;20043;-75
2023/04/02 05:10:41;;;;;;;3.38;0.70;;;9.00;99.90;;;;;;6154955;29;20051;-76
2023/04/02 05:13:51;;;;;;;1.75;0.70;;;9.00;99.90;;;;;;6154777;29;20043;-76
2023/04/02 05:17:01;;;;;;;2.85;0.80;;;9.00;99.90;;;;;;6154263;29;20062;-77
2023/04/02 05:20:15;;;;;;;3.92;0.98;;;9.00;99.90;;;;;;6154713;29;20047;-79
2023/04/02 05:23:22;;;;;;;1.85;0.70;;;9.10;99.90;;;;;;6155035;29;20075;-78
2023/04/02 05:26:30;;;;;;;2.55;1.00;;;9.10;99.90;;;;;;6143798;28;20058;-78
2023/04/02 05:29:38;;;;;;;3.58;0.90;;;9.20;99.90;;;;;;6154168;29;20400;-80
2023/04/02 05:32:46;;;;;;;2.78;0.80;;;9.20;99.90;;;;;;6144478;29;20058;-78
2023/04/02 05:35:53;;;;;;;2.47;0.80;;;9.20;99.90;;;;;;6152716;29;20048;-77
2023/04/02 05:38:57;;;;;;;2.05;0.70;;;9.20;99.90;;;;;;6153951;29;20531;-78
2023/04/02 05:42:03;;;;;;;1.33;0.60;;;9.20;99.90;;;;;;6154165;29;20122;-79
2023/04/02 05:45:19;;;;;;;3.67;0.85;;;9.20;99.90;;;;;;6148289;29;20057;-77
2023/04/02 05:48:30;;;;;;;3.85;0.88;;;9.20;99.90;;;;;;6154046;29;20138;-76
2023/04/02 05:51:42;;;;;;;1.90;0.80;;;9.10;99.90;;;;;;6152499;29;20050;-77
2023/04/02 05:54:48;;;;;;;4.18;0.90;;;9.20;99.90;;;;;;6151936;29;20047;-80
2023/04/02 05:57:55;;;;;;;1.98;0.70;;;9.20;99.90;;;;;;6137130;29;20051;-77
2023/04/02 06:01:07;;;;;;;3.63;1.00;;;9.30;99.90;;;;;;6149992;29;20062;-78
2023/04/02 06:04:21;;;;;;;3.35;0.90;;;9.30;99.90;;;;;;6151585;29;20043;-78
2023/04/02 06:07:28;;;;;;;3.60;1.00;;;9.30;99.90;;;;;;6152754;29;20061;-78
2023/04/02 06:10:33;;;;;;;2.90;1.13;;;9.40;99.90;;;;;;6152702;29;20058;-79
2023/04/02 06:13:35;;;;;;;3.20;1.08;;;9.40;99.90;;;;;;6152014;29;20051;-79
2023/04/02 06:16:39;;;;;;;2.65;1.00;;;9.40;99.90;;;;;;6152117;29;20047;-79
2023/04/02 06:19:42;;;;;;;4.57;1.40;;;9.40;99.90;;;;;;6156865;29;20050;-78
2023/04/02 06:22:48;;;;;;;2.90;1.00;;;9.40;99.90;;;;;;6152282;29;20394;-78
2023/04/02 06:25:55;;;;;;;2.47;0.90;;;9.50;99.90;;;;;;6149687;29;20062;-77
2023/04/02 06:29:04;;;;;;;2.80;1.02;;;9.60;99.90;;;;;;6152890;29;20047;-80
2023/04/02 06:32:08;;;;;;;3.50;1.00;;;9.60;99.90;;;;;;6151379;29;20420;-78
2023/04/02 06:35:14;;;;;;;2.92;0.98;;;9.70;99.90;;;;;;6150456;29;20057;-80
2023/04/02 06:38:20;;;;;;;3.15;0.90;;;9.70;99.90;;;;;;6139288;29;20138;-79
2023/04/02 06:41:24;;;;;;;2.33;0.90;;;9.80;99.90;;;;;;6140885;29;20047;-77
2023/04/02 06:44:31;;;;;;;4.22;1.08;;;9.90;99.90;;;;;;6152665;29;20051;-78
2023/04/02 06:47:38;;;;;;;3.53;1.20;;;9.90;99.90;;;;;;6154298;29;20043;-76
2023/04/02 06:50:48;;;;;;;2.85;1.08;;;9.90;99.90;;;;;;6150827;29;20409;-77
2023/04/02 06:53:50;;;;;;;2.97;1.00;;;9.90;99.90;;;;;;6152360;29;20051;-77
2023/04/02 06:56:55;;;;;;;3.25;1.00;;;10.00;99.90;;;;;;6144883;29;20121;-76
2023/04/02 06:59:56;;;;;;;4.45;1.02;;;10.00;99.90;;;;;;6146879;29;20420;-76
2023/04/02 07:03:02;;;;;;;2.58;1.10;;;10.00;99.90;;;;;;6151776;28;20055;-78
2023/04/02 07:06:06;;;;;;;3.50;1.00;;;10.10;99.90;;;;;;6152128;29;20389;-78
2023/04/02 07:09:08;;;;;;;3.85;1.20;;;10.20;99.90;;;;;;6151283;28;20047;-79
2023/04/02 07:12:11;;;;;;;3.33;1.10;;;10.20;99.90;;;;;;6151988;29;20059;-76
2023/04/02 07:15:15;;;;;;;;;;;10.30;99.90;;;;;;6152954;29;20059;-77
2023/04/02 07:18:26;;;;;;;2.97;1.05;;;10.30;99.90;;;;;;6148992;29;19933;-76
2023/04/02 07:21:30;;;;;;;4.55;1.00;;;10.40;99.90;;;;;;6143483;29;20043;-77
2023/04/02 07:24:31;;;;;;;;;;;10.40;99.90;;;;;;6143725;29;20046;-77
2023/04/02 07:27:33;;;;;;;4.25;1.30;;;10.40;99.90;;;;;;6144071;29;19922;-77
2023/04/02 07:30:41;;;;;;;8.07;2.60;;;10.40;99.90;;;;;;6132278;29;20043;-77
2023/04/02 07:33:44;;;;;;;5.05;1.30;;;10.50;99.90;;;;;;6149550;29;20066;-77
2023/04/02 07:36:48;;;;;;;6.75;2.22;;;10.40;99.90;;;;;;6151691;29;20047;-78
2023/04/02 07:39:50;;;;;;;3.28;1.08;;;10.30;99.90;;;;;;6149661;29;20051;-77
2023/04/02 07:42:52;;;;;;;3.63;1.20;;;10.20;99.90;;;;;;6151523;29;20043;-78
2023/04/02 07:45:53;;;;;;;2.45;1.00;;;10.30;99.90;;;;;;6147597;29;20070;-78
2023/04/02 07:48:55;;;;;;;4.28;1.10;;;10.40;99.90;;;;;;6151811;29;20062;-77
2023/04/02 07:51:58;;;;;;;3.83;1.00;;;10.30;99.90;;;;;;6139585;28;20412;-78
2023/04/02 07:55:01;;;;;;;3.08;1.10;;;10.40;99.90;;;;;;6145334;29;20135;-79
2023/04/02 07:58:03;;;;;;;2.60;1.10;;;10.30;99.90;;;;;;6149684;29;20061;-77
2023/04/02 08:01:05;;;;;;;3.42;1.10;;;10.30;99.90;;;;;;6149715;28;20059;-77
2023/04/02 08:04:16;;;;;;;3.08;1.08;;;10.30;99.90;;;;;;6149294;29;20044;-78
2023/04/02 08:07:20;;;;;;;3.85;1.10;;;10.40;99.90;;;;;;6150085;29;20463;-77
2023/04/02 08:10:23;;;;;;;2.40;1.00;;;10.40;99.90;;;;;;6150990;29;20083;-77
2023/04/02 08:13:25;;;;;;;4.00;1.05;;;10.40;99.90;;;;;;6151191;29;20473;-78
2023/04/02 08:16:27;;;;;;;3.60;1.13;;;10.40;99.90;;;;;;6146713;29;20066;-76
2023/04/02 08:19:28;;;;;;;2.85;1.05;;;10.40;99.90;;;;;;6143986;29;20055;-78
2023/04/02 08:22:32;;;;;;;3.40;1.00;;;10.50;99.90;;;;;;6155064;28;20151;-77
2023/04/02 08:25:34;;;;;;;3.15;1.35;;;10.60;99.90;;;;;;6153634;29;20407;-79
2023/04/02 08:28:36;;;;;;;3.13;1.25;;;10.70;99.90;;;;;;6152902;29;20043;-77
2023/04/02 08:31:38;;;;;;;4.05;1.00;;;10.70;99.90;;;;;;6153659;29;20051;-76
2023/04/02 08:34:40;;;;;;;4.60;1.30;;;10.70;99.90;;;;;;6154332;29;20477;-80
2023/04/02 08:37:43;;;;;;;4.45;1.20;;;10.70;99.90;;;;;;6147785;29;20054;-80
2023/04/02 08:40:47;;;;;;;;;;;10.70;99.90;;;;;;6152815;29;20047;-79
2023/04/02 08:44:07;;;;;;;4.00;1.20;;;10.70;99.90;;;;;;6154746;29;19928;-78
2023/04/02 08:47:10;;;;;;;3.65;1.17;;;10.70;99.90;;;;;;6152962;29;20155;-79
2023/04/02 08:50:23;;;;;;;4.00;1.00;;;10.60;99.90;;;;;;6153357;29;20078;-80
2023/04/02 08:53:31;;;;;;;2.88;1.10;;;10.50;99.90;;;;;;6153103;29;20481;-77
2023/04/02 08:56:40;;;;;;;2.90;1.10;;;10.60;99.90;;;;;;6152337;29;20047;-79
2023/04/02 08:59:44;;;;;;;3.38;0.90;;;10.50;99.90;;;;;;6142523;29;20047;-80
2023/04/02 09:02:53;;;;;;;1.80;0.70;;;10.50;99.90;;;;;;6153338;28;20063;-79
2023/04/02 09:05:57;;;;;;;1.52;0.73;;;10.60;99.90;;;;;;6157836;28;20059;-77
2023/04/02 09:09:00;;;;;;;2.30;0.70;;;10.50;99.90;;;;;;6153442;29;20058;-80
2023/04/02 09:12:05;;;;;;;2.53;0.70;;;10.70;99.90;;;;;;6154441;29;20055;-77
2023/04/02 09:15:29;;;;;;;1.70;0.68;;;10.70;99.90;;;;;;6143613;29;20410;-78
2023/04/02 09:18:32;;;;;;;2.08;0.70;;;10.80;99.90;;;;;;6153701;29;20055;-78
2023/04/02 09:21:38;;;;;;;1.85;0.60;;;10.80;99.90;;;;;;6131015;28;20067;-78
2023/04/02 09:24:41;;;;;;;2.00;0.50;;;10.90;99.90;;;;;;6150458;29;20047;-77
2023/04/02 09:27:49;;;;;;;3.35;0.90;;;10.90;99.90;;;;;;6151221;29;20055;-80
2023/04/02 09:31:01;;;;;;;3.40;0.90;;;11.00;99.90;;;;;;6151005;29;20066;-76
2023/04/02 09:34:29;;;;;;;30.92;15.18;;;11.10;99.90;;;;;;6145337;28;20477;-79
2023/04/02 09:37:32;;;;;;;3.10;1.20;;;11.20;99.90;;;;;;6154253;29;20134;-79
2023/04/02 09:40:50;;;;;;;1.65;0.55;;;11.20;99.90;;;;;;6151261;29;20150;-78
2023/04/02 09:44:13;;;;;;;7.30;1.08;;;11.30;99.90;;;;;;6149359;29;20563;-77
2023/04/02 09:47:27;;;;;;;2.75;0.75;;;11.40;99.90;;;;;;6150728;29;20053;-77
2023/04/02 09:50:33;;;;;;;3.10;0.85;;;11.50;99.90;;;;;;6150191;29;20442;-77
2023/04/02 09:53:37;;;;;;;2.60;0.70;;;11.50;99.90;;;;;;6149612;29;20105;-81
2023/04/02 09:56:41;;;;;;;2.13;0.70;;;11.50;99.90;;;;;;6149796;29;20051;-79
2023/04/02 09:59:43;;;;;;;3.45;1.60;;;11.60;99.90;;;;;;6148682;29;20059;-79
2023/04/02 10:02:46;;;;;;;3.65;1.20;;;11.70;99.90;;;;;;6149642;29;20483;-79
2023/04/02 10:06:05;;;;;;;;;;;11.80;99.90;;;;;;6150231;29;20171;-76
2023/04/02 10:09:25;;;;;;;1.58;0.60;;;11.90;99.90;;;;;;6149793;29;20352;-79
2023/04/02 10:12:30;;;;;;;1.92;0.80;;;12.10;99.90;;;;;;6148085;29;20501;-79
2023/04/02 10:15:40;;;;;;;1.48;0.45;;;12.10;99.90;;;;;;6139965;29;20501;-77
2023/04/02 10:18:48;;;;;;;1.70;0.68;;;12.10;99.90;;;;;;6152257;28;20496;-78
2023/04/02 10:21:53;;;;;;;2.55;0.90;;;12.10;99.90;;;;;;6156416;28;20047;-78
2023/04/02 10:24:58;;;;;;;1.67;0.40;;;12.20;99.20;;;;;;6149882;29;20063;-77
2023/04/02 10:28:15;;;;;;;1.48;0.60;;;12.10;98.90;;;;;;6149602;29;20047;-80
2023/04/02 10:31:24;;;;;;;1.95;0.47;;;12.20;99.10;;;;;;6148155;29;20670;-78
2023/04/02 10:34:41;;;;;;;1.52;0.50;;;12.30;98.60;;;;;;6149122;29;20043;-81
2023/04/02 10:38:05;;;;;;;2.63;0.50;;;12.20;98.70;;;;;;6148987;29;20062;-78
2023/04/02 10:41:21;;;;;;;5.05;2.10;;;12.30;98.60;;;;;;6142290;29;20059;-80
2023/04/02 10:44:39;;;;;;;2.95;0.75;;;12.50;98.20;;;;;;6139715;29;20075;-77
2023/04/02 10:47:50;;;;;;;1.50;0.50;;;12.70;97.90;;;;;;6135988;29;20078;-77
2023/04/02 10:50:59;;;;;;;1.50;0.40;;;12.90;97.70;;;;;;6147440;29;20390;-76
2023/04/02 10:54:20;;;;;;;1.42;0.60;;;12.90;97.40;;;;;;6132692;29;20152;-76
2023/04/02 10:57:33;;;;;;;0.57;0.30;;;13.00;96.60;;;;;;6148679;29;20047;-76
2023/04/02 11:00:41;;;;;;;1.52;0.60;;;12.90;96.50;;;;;;6138106;28;20067;-75
2023/04/02 11:03:48;;;;;;;2.15;0.80;;;12.90;97.00;;;;;;6148540;29;20051;-74
2023/04/02 11:06:54;;;;;;;1.30;0.50;;;13.10;97.00;;;;;;6142636;29;20047;-75
2023/04/02 11:09:58;;;;;;;1.67;0.50;;;13.30;96.60;;;;;;6146269;29;20133;-75
2023/04/02 11:13:11;;;;;;;1.92;0.50;;;13.40;96.60;;;;;;6126747;29;20051;-74
2023/04/02 11:16:14;;;;;;;2.38;0.60;;;13.20;97.50;;;;;;6132086;29;20194;-76
2023/04/02 11:19:25;;;;;;;2.15;0.73;;;13.20;96.90;;;;;;6147997;29;20742;-76
2023/04/02 11:22:28;;;;;;;2.45;0.50;;;12.90;96.90;;;;;;6148280;29;20043;-76
2023/04/02 11:25:31;;;;;;;1.08;0.50;;;13.10;96.90;;;;;;6148151;29;20377;-74
2023/04/02 11:28:33;;;;;;;1.50;0.50;;;13.20;96.60;;;;;;6130236;29;20057;-78
2023/04/02 11:31:35;;;;;;;1.55;0.60;;;13.30;96.50;;;;;;6148611;29;20059;-79
2023/04/02 11:35:16;;;;;;;2.33;0.77;;;13.10;96.60;;;;;;6149366;29;20405;-78
2023/04/02 11:38:52;;;;;;;2.50;0.90;;;13.20;96.70;;;;;;6146763;29;20051;-78
2023/04/02 11:42:23;;;;;;;2.85;1.20;;;13.20;98.10;;;;;;6072169;29;20059;-76
2023/04/02 11:45:54;;;;;;;3.90;1.30;;;13.10;98.00;;;;;;6086326;29;20060;-75
2023/04/02 11:49:38;;;;;;;4.22;0.80;;;13.10;98.20;;;;;;6153118;29;20065;-76
2023/04/02 11:52:52;;;;;;;4.10;1.10;;;13.10;98.50;;;;;;6148124;29;20066;-75
2023/04/02 11:56:17;;;;;;;2.83;1.08;;;13.00;98.50;;;;;;6148734;28;20043;-74
2023/04/02 11:59:28;;;;;;;2.80;0.93;;;12.80;99.20;;;;;;6146834;29;20440;-74
2023/04/02 12:02:41;;;;;;;2.78;1.00;;;12.80;99.30;;;;;;6148834;29;20058;-77
2023/04/02 12:05:53;;;;;;;2.88;0.95;;;12.80;99.30;;;;;;6147961;29;20059;-75
2023/04/02 12:09:04;;;;;;;2.60;1.00;;;12.80;99.20;;;;;;6146379;29;20424;-76
2023/04/02 12:12:18;;;;;;;2.35;0.98;;;12.80;98.10;;;;;;6147970;29;20047;-75
2023/04/02 12:15:43;;;;;;;2.10;0.77;;;12.80;98.10;;;;;;6147976;29;20087;-76
2023/04/02 12:18:52;;;;;;;3.17;0.80;;;12.80;98.40;;;;;;6146973;29;20058;-76
2023/04/02 12:21:55;;;;;;;2.33;0.80;;;12.90;98.30;;;;;;6147188;29;20047;-77
2023/04/02 12:25:01;;;;;;;1.52;0.70;;;12.80;98.40;;;;;;6147454;29;20054;-76
2023/04/02 12:28:06;;;;;;;3.05;0.90;;;12.90;98.30;;;;;;6146615;29;20054;-76
2023/04/02 12:31:17;;;;;;;2.70;0.90;;;13.00;97.70;;;;;;6139996;29;20515;-75
2023/04/02 12:34:22;;;;;;;2.22;0.77;;;13.10;97.90;;;;;;6147503;29;20420;-75
2023/04/02 12:37:27;;;;;;;3.45;1.00;;;13.20;98.00;;;;;;6148185;29;20051;-76
2023/04/02 12:40:30;;;;;;;2.28;0.88;;;13.20;98.00;;;;;;6145171;29;20063;-76
2023/04/02 12:43:34;;;;;;;3.75;1.10;;;13.30;97.80;;;;;;6151011;29;20047;-74
2023/04/02 12:46:40;;;;;;;4.13;1.10;;;13.10;98.30;;;;;;6152486;29;20051;-76
2023/04/02 12:49:44;;;;;;;2.88;0.98;;;13.00;98.10;;;;;;6150454;29;20039;-74
2023/04/02 12:52:50;;;;;;;4.70;2.05;;;13.00;98.20;;;;;;6147678;29;20078;-77
2023/04/02 12:55:53;;;;;;;5.10;2.05;;;13.10;98.00;;;;;;6146875;29;20055;-75
2023/04/02 12:58:57;;;;;;;4.20;1.88;;;13.30;97.60;;;;;;6145588;29;20082;-76
2023/04/02 13:02:02;;;;;;;2.80;1.20;;;13.30;97.20;;;;;;6147023;28;20065;-74
2023/04/02 13:05:05;;;;;;;2.47;0.90;;;13.40;96.80;;;;;;6147150;29;20055;-75
2023/04/02 13:08:16;;;;;;;2.88;1.20;;;13.30;96.80;;;;;;6146746;28;20058;-76
2023/04/02 13:11:19;;;;;;;2.78;1.20;;;13.30;97.20;;;;;;6149976;29;20046;-75
2023/04/02 13:14:24;;;;;;;2.55;0.80;;;13.40;97.00;;;;;;6149149;29;20050;-75
2023/04/02 13:17:43;;;;;;;1.98;0.88;;;13.50;96.70;;;;;;6149819;29;20055;-75
2023/04/02 13:20:57;;;;;;;2.95;0.85;;;13.60;96.40;;;;;;6137731;29;20518;-76
2023/04/02 13:23:59;;;;;;;2.10;0.90;;;13.90;96.30;;;;;;6145953;29;20047;-78
2023/04/02 13:27:03;;;;;;;4.20;1.40;;;13.80;96.40;;;;;;6150686;29;20062;-76
2023/04/02 13:30:09;;;;;;;;;;;13.90;95.70;;;;;;6150591;29;20063;-78
2023/04/02 13:33:13;;;;;;;1.40;0.80;;;14.10;95.30;;;;;;6152201;29;19926;-79
2023/04/02 13:36:15;;;;;;;2.28;0.88;;;14.30;94.80;;;;;;6152621;29;20497;-77
2023/04/02 13:39:26;;;;;;;2.28;0.80;;;14.10;95.50;;;;;;6147865;29;20489;-77
2023/04/02 13:42:29;;;;;;;3.13;1.10;;;14.40;95.30;;;;;;6148773;29;20198;-77
2023/04/02 13:45:35;;;;;;;2.28;1.00;;;14.30;95.60;;;;;;6147934;29;20055;-78
2023/04/02 13:48:38;;;;;;;2.85;0.90;;;14.00;95.40;;;;;;6150936;29;20412;-78
2023/04/02 13:51:44;;;;;;;3.33;1.20;;;14.20;94.80;;;;;;6153824;29;20107;-78
2023/04/02 13:54:48;;;;;;;2.55;1.10;;;14.00;95.80;;;;;;6152406;29;20063;-78
2023/04/02 13:57:50;;;;;;;1.90;0.80;;;13.90;96.00;;;;;;6150041;29;20142;-78
2023/04/02 14:00:52;;;;;;;3.65;1.40;;;14.00;95.50;;;;;;6152203;28;20043;-78
2023/04/02 14:03:56;;;;;;;4.63;2.30;;;14.10;95.80;;;;;;6150359;29;20055;-76
2023/04/02 14:07:27;;;;;;;4.97;2.40;;;14.10;96.20;;;;;;6152141;29;20086;-79
2023/04/02 14:10:59;;;;;;;2.38;1.02;;;14.40;95.40;;;;;;6153237;29;20153;-78
2023/04/02 14:14:37;;;;;;;3.03;1.15;;;14.40;96.10;;;;;;6145092;29;20049;-78
2023/04/02 14:17:57;;;;;;;2.10;0.98;;;14.40;96.10;;;;;;6133911;29;20146;-75
2023/04/02 14:21:15;;;;;;;2.38;1.00;;;14.30;96.10;;;;;;6150271;28;20057;-76
2023/04/02 14:24:23;;;;;;;2.55;1.08;;;13.80;96.00;;;;;;6153197;29;20055;-77
2023/04/02 14:27:38;;;;;;;3.42;1.15;;;13.70;96.20;;;;;;6155177;29;20878;-75
2023/04/02 14:30:52;;;;;;;2.28;1.05;;;13.80;96.60;;;;;;6154692;29;20129;-78
2023/04/02 14:34:03;;;;;;;3.10;1.10;;;13.60;97.30;;;;;;6143953;29;20051;-78
2023/04/02 14:37:16;;;;;;;3.17;1.05;;;13.60;98.50;;;;;;6127181;29;20452;-76
2023/04/02 14:40:27;;;;;;;7.18;1.38;;;13.50;98.50;;;;;;6145641;29;20048;-75
2023/04/02 14:43:39;;;;;;;3.70;1.00;;;13.10;98.70;;;;;;6146157;29;20562;-78
2023/04/02 14:46:41;;;;;;;2.70;1.05;;;12.90;98.70;;;;;;6143378;29;20066;-77
2023/04/02 14:49:48;;;;;;;1.80;0.68;;;12.70;99.10;;;;;;6138086;29;20043;-78
2023/04/02 14:52:57;;;;;;;2.97;1.00;;;12.80;99.30;;;;;;6147633;29;20113;-78
2023/04/02 14:56:03;;;;;;;2.55;0.90;;;12.90;99.50;;;;;;6147437;29;20114;-76
2023/04/02 14:59:23;;;;;;;1.92;0.82;;;12.40;99.90;;;;;;6150484;29;20062;-74
2023/04/02 15:02:36;;;;;;;2.17;1.00;;;12.40;99.90;;;;;;6129062;29;20067;-74
2023/04/02 15:05:43;;;;;;;1.88;0.85;;;12.10;99.90;;;;;;6147868;29;20076;-75
2023/04/02 15:08:50;;;;;;;1.98;0.95;;;11.80;99.90;;;;;;6148706;29;20051;-75
2023/04/02 15:11:55;;;;;;;2.30;0.80;;;11.50;99.90;;;;;;6148564;29;20059;-75
2023/04/02 15:15:05;;;;;;;3.60;1.40;;;11.50;99.90;;;;;;6145819;29;20390;-75
2023/04/02 15:18:12;;;;;;;2.47;0.85;;;11.70;99.90;;;;;;6147161;29;20055;-76
2023/04/02 15:21:45;;;;;;;2.17;0.80;;;11.80;99.90;;;;;;6148153;29;20055;-77
2023/04/02 15:25:00;;;;;;;2.00;0.80;;;11.80;99.90;;;;;;6156881;28;20053;-76
2023/04/02 15:28:17;;;;;;;1.45;0.70;;;11.70;99.90;;;;;;6147814;29;20109;-77
2023/04/02 15:31:21;;;;;;;1.23;0.60;;;11.60;99.90;;;;;;6147240;28;20441;-75
2023/04/02 15:34:30;;;;;;;1.98;0.98;;;11.40;99.90;;;;;;6146983;29;20409;-75
2023/04/02 15:37:39;;;;;;;2.92;1.30;;;11.40;99.90;;;;;;6148236;29;20054;-75
2023/04/02 15:40:57;;;;;;;5.97;2.25;;;11.40;99.90;;;;;;6146040;29;20055;-75
2023/04/02 15:44:08;;;;;;;3.65;1.50;;;11.20;99.90;;;;;;6148495;29;20059;-75
2023/04/02 15:47:19;;;;;;;2.70;1.10;;;11.10;99.90;;;;;;6148286;29;20102;-77
2023/04/02 15:50:46;;;;;;;1.92;1.00;;;10.90;99.90;;;;;;6126285;29;20047;-78
2023/04/02 15:53:59;;;;;;;2.72;1.05;;;10.80;99.90;;;;;;6142370;29;20062;-79
2023/04/02 15:57:19;;;;;;;2.72;1.20;;;10.70;99.90;;;;;;6149064;29;20059;-77
2023/04/02 16:00:26;;;;;;;1.92;1.02;;;10.80;99.90;;;;;;6148186;29;20047;-77
2023/04/02 16:03:48;;;;;;;2.95;1.30;;;10.90;99.90;;;;;;6144275;29;20051;-79
2023/04/02 16:07:20;;;;;;;2.53;1.25;;;10.90;99.90;;;;;;6138937;29;20047;-78
2023/04/02 16:10:28;;;;;;;2.70;1.20;;;10.80;99.90;;;;;;6142047;29;20553;-80
2023/04/02 16:13:35;;;;;;;2.95;1.45;;;10.90;99.90;;;;;;6144513;29;20116;-78
2023/04/02 16:16:40;;;;;;;3.15;1.73;;;10.70;99.90;;;;;;6141839;29;20055;-78
2023/04/02 16:19:48;;;;;;;2.92;1.40;;;10.60;99.90;;;;;;6146854;29;20059;-79
2023/04/02 16:22:57;;;;;;;3.75;1.75;;;10.60;99.90;;;;;;6144538;29;20059;-77
2023/04/02 16:26:20;;;;;;;4.07;1.60;;;10.60;99.90;;;;;;6147176;29;20059;-79
2023/04/02 16:29:52;;;;;;;3.63;1.80;;;10.60;99.90;;;;;;6151109;29;20067;-79
2023/04/02 16:33:10;;;;;;;3.30;1.73;;;10.40;99.90;;;;;;6146842;29;20386;-78
2023/04/02 16:36:25;;;;;;;3.10;1.50;;;10.30;99.90;;;;;;6141923;29;20051;-78
2023/04/02 16:39:37;;;;;;;4.07;2.05;;;10.20;99.90;;;;;;6143521;29;20046;-79
2023/04/02 16:42:49;;;;;;;3.50;1.85;;;10.10;99.90;;;;;;6138213;28;20047;-80
2023/04/02 16:45:59;;;;;;;3.00;1.80;;;10.10;99.90;;;;;;6152478;28;20047;-77
2023/04/02 16:49:12;;;;;;;3.75;1.80;;;10.00;99.90;;;;;;6150307;29;20687;-76
2023/04/02 16:52:39;;;;;;;3.60;1.80;;;9.90;99.90;;;;;;6150598;29;20051;-76
2023/04/02 16:55:58;;;;;;;3.72;1.80;;;9.80;99.90;;;;;;6150395;29;20137;-77
2023/04/02 16:59:11;;;;;;;2.58;1.35;;;9.70;99.90;;;;;;6150551;29;20564;-79
2023/04/02 17:02:31;;;;;;;2.90;1.50;;;9.60;99.90;;;;;;6114792;29;1031878;-75
2023/04/02 17:05:43;;;;;;;3.92;1.33;;;9.70;99.90;;;;;;6148869;29;20444;-77
2023/04/02 17:08:51;;;;;;;2.95;1.52;;;9.70;99.90;;;;;;6150720;29;20074;-75
2023/04/02 17:12:00;;;;;;;4.78;2.60;;;9.70;99.90;;;;;;6151331;29;20047;-75
2023/04/02 17:15:11;;;;;;;3.08;1.60;;;9.70;99.90;;;;;;6151498;29;20062;-77
2023/04/02 17:18:20;;;;;;;2.90;1.30;;;9.70;99.90;;;;;;6150228;29;20059;-76
2023/04/02 17:21:26;;;;;;;2.70;1.38;;;9.60;99.90;;;;;;6150144;29;20051;-75
2023/04/02 17:24:33;;;;;;;3.05;1.40;;;9.70;99.90;;;;;;6150892;29;20055;-77
2023/04/02 17:27:39;;;;;;;4.95;2.25;;;9.60;99.90;;;;;;6150317;29;20055;-76
2023/04/02 17:30:45;;;;;;;3.60;2.05;;;9.60;99.90;;;;;;6150147;29;20489;-79
2023/04/02 17:33:49;;;;;;;3.15;1.70;;;9.40;99.90;;;;;;6148196;28;20500;-77
2023/04/02 17:36:57;;;;;;;;;;;9.30;99.90;;;;;;6148484;29;20130;-76
2023/04/02 17:40:17;;;;;;;2.80;1.58;;;9.40;99.90;;;;;;6149345;29;19934;-80
2023/04/02 17:43:35;;;;;;;4.00;2.00;;;9.40;99.90;;;;;;6150234;29;20051;-80
2023/04/02 17:46:45;;;;;;;3.05;1.90;;;9.30;99.90;;;;;;6147077;28;20047;-76
2023/04/02 17:50:22;;;;;;;3.20;1.75;;;9.20;99.90;;;;;;6150111;28;20408;-77
2023/04/02 17:53:45;;;;;;;4.20;1.85;;;9.00;99.90;;;;;;6101463;29;20052;-78
2023/04/02 17:57:06;;;;;;;4.18;2.33;;;9.20;99.90;;;;;;6141201;29;20058;-77
2023/04/02 18:00:24;;;;;;;4.25;2.10;;;9.00;99.90;;;;;;6149902;29;20409;-79
2023/04/02 18:03:51;;;;;;;2.70;1.60;;;9.00;99.90;;;;;;6150100;29;20508;-77
2023/04/02 18:07:09;;;;;;;3.50;1.75;;;9.10;99.90;;;;;;6149298;29;20070;-76
2023/04/02 18:10:25;;;;;;;2.85;1.60;;;8.80;99.90;;;;;;6150542;29;20055;-77
2023/04/02 18:13:34;;;;;;;2.97;1.60;;;8.90;99.90;;;;;;6149062;29;20412;-75
2023/04/02 18:16:50;;;;;;;2.88;1.80;;;9.00;99.90;;;;;;6147931;29;20047;-76
2023/04/02 18:20:00;;;;;;;3.70;1.80;;;8.70;99.90;;;;;;6148609;29;20047;-78
2023/04/02 18:23:25;;;;;;;3.40;1.90;;;8.60;99.90;;;;;;6150085;29;20055;-78
2023/04/02 18:26:41;;;;;;;3.97;2.03;;;8.60;99.90;;;;;;6149383;29;20412;-76
2023/04/02 18:29:53;;;;;;;3.13;1.92;;;8.60;99.90;;;;;;6148850;29;20506;-76
2023/04/02 18:33:32;;;;;;;3.53;2.05;;;8.60;99.90;;;;;;6149516;29;20145;-76
2023/04/02 18:36:46;;;;;;;4.70;2.67;;;8.50;99.90;;;;;;6148796;29;20089;-77
2023/04/02 18:40:05;;;;;;;4.65;2.45;;;8.30;99.90;;;;;;6149896;29;20481;-77
2023/04/02 18:43:24;;;;;;;3.47;2.13;;;8.40;99.90;;;;;;6147592;29;20058;-77
2023/04/02 18:46:37;;;;;;;4.05;2.65;;;8.50;99.90;;;;;;6148549;29;20057;-77
2023/04/02 18:49:45;;;;;;;3.83;2.40;;;8.40;99.90;;;;;;6150516;29;20054;-78
2023/04/02 18:52:53;;;;;;;5.68;2.92;;;8.50;99.90;;;;;;6150145;29;20062;-78
2023/04/02 18:56:03;;;;;;;4.63;2.92;;;8.30;99.90;;;;;;6149598;29;20635;-77
2023/04/02 18:59:28;;;;;;;5.20;3.17;;;8.20;99.90;;;;;;6146580;29;20429;-75
2023/04/02 19:02:44;;;;;;;4.95;3.20;;;8.20;99.90;;;;;;6148810;28;20106;-76
2023/04/02 19:05:52;;;;;;;5.63;3.20;;;8.10;99.90;;;;;;6148838;28;20054;-78
2023/04/02 19:08:58;;;;;;;5.05;3.10;;;8.10;99.90;;;;;;6147412;29;20058;-77
2023/04/02 19:12:02;;;;;;;5.00;2.97;;;8.00;99.90;;;;;;6125529;29;20047;-76
2023/04/02 19:15:15;;;;;;;;;;;8.10;99.90;;;;;;6145359;29;20051;-76
2023/04/02 19:18:28;;;;;;;5.20;3.40;;;8.00;99.90;;;;;;6147755;29;19926;-76
2023/04/02 19:21:53;;;;;;;5.50;3.30;;;8.10;99.90;;;;;;6148276;29;20078;-76
2023/04/02 19:25:16;;;;;;;5.65;3.47;;;8.00;99.90;;;;;;6147327;29;20055;-77
2023/04/02 19:28:25;;;;;;;;;;;7.80;99.90;;;;;;6146425;29;20055;-78
2023/04/02 19:31:42;;;;;;;7.97;4.40;;;7.70;99.90;;;;;;6147970;29;20315;-76
2023/04/02 19:34:53;;;;;;;5.63;3.42;;;7.70;99.90;;;;;;6148435;29;20055;-78
2023/04/02 19:38:06;;;;;;;7.90;4.28;;;7.50;99.90;;;;;;6146564;29;20058;-77
2023/04/02 19:41:16;;;;;;;7.00;3.78;;;7.30;99.90;;;;;;6143907;29;20058;-78
2023/04/02 19:44:21;;;;;;;5.82;3.60;;;7.10;99.90;;;;;;6139213;29;20062;-76
2023/04/02 19:47:23;;;;;;;7.78;4.40;;;7.30;99.90;;;;;;6144257;29;20051;-75
2023/04/02 19:50:26;;;;;;;6.88;3.90;;;7.30;99.90;;;;;;6130608;29;20055;-75
2023/04/02 19:53:27;;;;;;;6.43;3.88;;;7.10;99.90;;;;;;6145603;29;20062;-78
2023/04/02 19:56:29;;;;;;;6.65;4.10;;;7.10;99.90;;;;;;6144528;29;20044;-76
2023/04/02 19:59:33;;;;;;;7.70;4.32;;;7.10;99.90;;;;;;6147385;29;20051;-77
2023/04/02 20:02:34;;;;;;;7.78;3.78;;;7.00;99.90;;;;;;6145131;29;20075;-77
2023/04/02 20:05:36;;;;;;;7.18;3.65;;;7.00;99.90;;;;;;6147641;29;20055;-78
2023/04/02 20:08:38;;;;;;;6.50;3.63;;;7.00;99.90;;;;;;6146362;29;20087;-76
2023/04/02 20:11:40;;;;;;;6.47;3.35;;;7.00;99.90;;;;;;6147445;29;20052;-77
2023/04/02 20:14:43;;;;;;;6.40;3.35;;;6.90;99.90;;;;;;6146577;29;20066;-78
2023/04/02 20:17:45;;;;;;;6.63;3.40;;;6.80;99.90;;;;;;6148389;28;20059;-76
2023/04/02 20:20:48;;;;;;;6.88;3.30;;;6.80;99.90;;;;;;6151049;29;20043;-78
2023/04/02 20:23:53;;;;;;;6.35;3.50;;;6.80;99.90;;;;;;6151964;29;20062;-78
2023/04/02 20:26:54;;;;;;;7.00;3.70;;;6.80;99.90;;;;;;6154686;29;20059;-79
2023/04/02 20:29:58;;;;;;;6.88;3.60;;;6.60;99.90;;;;;;6151460;29;20055;-76
2023/04/02 20:33:00;;;;;;;7.45;3.38;;;6.50;99.90;;;;;;6152007;29;20476;-77
2023/04/02 20:36:04;;;;;;;6.15;3.55;;;6.60;99.90;;;;;;6151234;29;20067;-78
2023/04/02 20:39:07;;;;;;;8.07;4.18;;;6.70;99.90;;;;;;6149797;29;20059;-78
2023/04/02 20:42:09;;;;;;;7.60;3.60;;;6.60;99.90;;;;;;6151566;29;20512;-77
2023/04/02 20:45:13;;;;;;;8.05;3.35;;;6.80;99.90;;;;;;6152308;29;20051;-76
2023/04/02 20:48:15;;;;;;;8.40;3.50;;;6.80;99.90;;;;;;6151220;29;20058;-78
2023/04/02 20:51:17;;;;;;;6.40;3.28;;;6.70;99.90;;;;;;6151257;29;20062;-75
2023/04/02 20:54:19;;;;;;;5.95;3.58;;;6.60;99.90;;;;;;6150007;29;20496;-76
2023/04/02 20:57:21;;;;;;;6.32;3.28;;;6.50;99.90;;;;;;6149593;29;20058;-77
2023/04/02 21:00:25;;;;;;;7.13;3.10;;;6.70;99.90;;;;;;6151558;29;20523;-76
2023/04/02 21:03:26;;;;;;;5.07;3.17;;;6.60;99.90;;;;;;6151144;28;20063;-76
2023/04/02 21:06:31;;;;;;;9.50;3.13;;;6.60;99.90;;;;;;6150046;29;20054;-76
2023/04/02 21:09:33;;;;;;;5.43;3.10;;;6.60;99.90;;;;;;6147865;29;20548;-77
2023/04/02 21:12:35;;;;;;;5.70;2.75;;;6.50;99.90;;;;;;6151440;29;20043;-77
2023/04/02 21:15:41;;;;;;;6.85;2.83;;;6.40;99.90;;;;;;6151006;29;20568;-78
2023/04/02 21:18:44;;;;;;;7.28;2.80;;;6.40;99.90;;;;;;6150122;29;20051;-75
2023/04/02 21:21:45;;;;;;;6.00;2.67;;;6.40;99.90;;;;;;6152086;29;20501;-76
2023/04/02 21:24:47;;;;;;;6.05;2.80;;;6.40;99.90;;;;;;6150937;29;20047;-75
2023/04/02 21:27:49;;;;;;;7.43;2.90;;;6.30;99.90;;;;;;6149406;28;20047;-77
2023/04/02 21:30:52;;;;;;;5.68;2.70;;;6.30;99.90;;;;;;6149648;29;20052;-77
2023/04/02 21:33:57;;;;;;;5.47;3.28;;;6.50;99.90;;;;;;6154289;28;20058;-76